»·PEaware :: FDX8535 KLAX-KAVX

FDX8535 :: KLAX-KAVX

FLIGHT INFORMATION

Flight Status: Arrived
Operator:
Federal Express
More flights by this operator :: More flights under this callsign
Pilot: Gregory A. (9731)
Aircraft: DEHAVILLAND DH-6 TWIN OTTER
(DHC6)
More flights by this aircraft type
Origin: KLAX Los Angeles Intl
United States
Destination: KAVX Catalina
United States
More flights between these airports :: More routes between these airports
Route: +SLI8 SLI V21 SXC
File this flight plan on PilotEdge
Remarks:
Altitude:
(Current/Filed)
50ft
Speed:
(Current/Filed)
170kts
Departed: 31-Dec-17 01:52 PM
Arrived: 31-Dec-17 02:14 PM
Distance/Time
Traveled:
32nm/0:22
Distance/Time
To Go:
Arrived

Flight Plot

Page will automatically refresh every two minutes.

Flight plan parsing failed; only flown route is shown


Map Options




Map Legend


Flown Route
Filed Route
Departure Airport
Arrival Airport
Navaid (VOR, NDB)
Fix

Horizontal Profiles

Position Reports

Time Latitude Longitude Heading Altitude Ground
Speed
31-Dec-17 13:25 33.933058 -118.402858 172 135ft 0kts
31-Dec-17 13:26 33.933058 -118.402858 172 135ft 0kts
31-Dec-17 13:27 33.933058 -118.402858 172 135ft 0kts
31-Dec-17 13:28 33.933058 -118.402858 172 135ft 0kts
31-Dec-17 13:29 33.933058 -118.402858 172 135ft 0kts
31-Dec-17 13:30 33.933058 -118.402858 172 135ft 0kts
31-Dec-17 13:31 33.933058 -118.402858 172 135ft 0kts
31-Dec-17 13:32 33.933058 -118.402858 172 135ft 0kts
31-Dec-17 13:33 33.933058 -118.402858 172 135ft 0kts
31-Dec-17 13:34 33.933058 -118.402858 172 135ft 0kts
31-Dec-17 13:35 33.933058 -118.402858 172 135ft 0kts
31-Dec-17 13:36 33.933058 -118.402858 172 135ft 0kts
31-Dec-17 13:37 33.933058 -118.402858 172 135ft 0kts
31-Dec-17 13:38 33.933058 -118.402858 172 135ft 0kts
31-Dec-17 13:39 33.933058 -118.402858 172 135ft 0kts
31-Dec-17 13:40 33.933058 -118.402858 172 135ft 0kts
31-Dec-17 13:41 33.933058 -118.402858 172 135ft 0kts
31-Dec-17 13:42 33.933058 -118.402858 172 135ft 0kts
31-Dec-17 13:43 33.933058 -118.402858 172 135ft 0kts
31-Dec-17 13:44 33.933038 -118.402860 194 135ft 1kts
31-Dec-17 13:45 33.933384 -118.402907 350 135ft 6kts
31-Dec-17 13:46 33.934113 -118.401794 95 135ft 13kts
31-Dec-17 13:47 33.934226 -118.400072 68 135ft 0kts
31-Dec-17 13:48 33.934226 -118.400071 68 135ft 0kts
31-Dec-17 13:49 33.934408 -118.399132 80 135ft 8kts
31-Dec-17 13:50 33.934833 -118.395222 83 135ft 14kts
31-Dec-17 13:51 33.935300 -118.390607 82 135ft 12kts
31-Dec-17 13:52 33.935700 -118.386710 82 135ft 12kts
31-Dec-17 13:53 33.936420 -118.382820 0 135ft 7kts
31-Dec-17 13:54 33.936606 -118.382825 356 135ft 0kts
31-Dec-17 13:55 33.936606 -118.382825 356 135ft 0kts
31-Dec-17 13:56 33.936606 -118.382825 356 135ft 0kts
31-Dec-17 13:57 33.936606 -118.382825 356 135ft 0kts
31-Dec-17 13:58 33.936053 -118.395464 262 313ft 125kts
31-Dec-17 13:59 33.931569 -118.449140 263 859ft 172kts
31-Dec-17 14:00 33.926653 -118.506328 263 1342ft 169kts
31-Dec-17 14:01 33.917309 -118.561050 221 1809ft 170kts
31-Dec-17 14:02 33.871300 -118.561550 172 2310ft 170kts
31-Dec-17 14:03 33.824208 -118.555198 172 2792ft 171kts
31-Dec-17 14:04 33.798069 -118.515351 102 3279ft 170kts
31-Dec-17 14:05 33.787678 -118.459296 102 3761ft 173kts
31-Dec-17 14:06 33.777541 -118.404403 103 4228ft 174kts
31-Dec-17 14:07 33.743865 -118.363979 142 4715ft 175kts
31-Dec-17 14:08 33.704970 -118.327314 142 5006ft 185kts
31-Dec-17 14:09 33.663845 -118.288639 142 5005ft 188kts
31-Dec-17 14:10 33.619596 -118.259370 193 4999ft 185kts
31-Dec-17 14:11 33.575979 -118.291576 214 5008ft 185kts
31-Dec-17 14:12 33.533078 -118.326541 214 4796ft 193kts
31-Dec-17 14:13 33.490086 -118.361900 214 3826ft 169kts
31-Dec-17 14:14 33.455619 -118.390793 214 3199ft 111kts
31-Dec-17 14:15 33.435737 -118.408097 214 2700ft 75kts
31-Dec-17 14:16 33.423113 -118.424749 234 2170ft 74kts
31-Dec-17 14:17 33.408121 -118.450423 234 2730ft 117kts
31-Dec-17 14:18 33.390883 -118.441719 62 2613ft 107kts
31-Dec-17 14:19 33.404756 -118.416175 48 1611ft 59kts
31-Dec-17 14:20 33.406688 -118.412221 235 1611ft 5kts
31-Dec-17 14:21 33.405293 -118.414635 234 1611ft 9kts
31-Dec-17 14:22 33.403528 -118.414855 162 1611ft 0kts
31-Dec-17 14:23 33.403528 -118.414854 162 1611ft 0kts
31-Dec-17 14:24 33.403528 -118.414854 162 1611ft 0kts
31-Dec-17 14:25 33.403528 -118.414854 162 1611ft 0kts
31-Dec-17 14:26 33.403528 -118.414854 162 1611ft 0kts
31-Dec-17 14:27 33.403528 -118.414854 162 1611ft 0kts
31-Dec-17 14:28 33.403528 -118.414854 162 1611ft 0kts
31-Dec-17 14:29 33.403528 -118.414854 162 1611ft 0kts
31-Dec-17 14:30 33.403528 -118.414854 162 1611ft 0kts

Navigation Log

Ident Type
Flight plan parsing failed, navigation log unavailable